Flight Track Log - Related Links

Times and Time Zones

All times are in EDT time to prevent confusion due to time zone crossing. See the DAL1981 flight status page for this flight to view local times or setup timezone preferences in your user account.

Time Position Orientation Groundspeed Altitude Reporting Facility
EDT Latitude Longitude Course Direction KTS MPH feet Rate Location/Type
Tue 04:09:43 PM 38.6667 -121.5833 78° East 161 185 900  Level Northern Cal TRACON
Tue 04:10:43 PM 38.6333 -121.5333 130° Southeast 228 262 2,000 1,750 Climbing Northern Cal TRACON
Tue 04:11:43 PM 38.6167 -121.4500 104° East 268 308 4,400 2,500 Climbing Northern Cal TRACON
Tue 04:12:43 PM 38.6167 -121.3500 90° East 285 328 7,000 2,299 Climbing Northern Cal TRACON
Tue 04:13:00 PM 38.5398 -121.0676 76° East  Level FlightAware Approximate
Tue 04:14:00 PM 38.5697 -120.8990 78° East  Level FlightAware Approximate
Tue 04:14:17 PM 38.6342 -121.2092 81° East 288 331 10,300  Level Oakland Center
Tue 04:15:00 PM 38.5978 -120.7298 78° East  Level FlightAware Approximate
Tue 04:15:19 PM 38.6458 -121.0858 83° East 329 379 11,500  Level Oakland Center
Tue 04:16:20 PM 38.6908 -120.9725 63° Northeast 367 422 13,500 1,918 Climbing Oakland Center
Tue 04:17:21 PM 38.7567 -120.8672 51° Northeast 377 434 15,400 1,854 Climbing Oakland Center
Tue 04:18:23 PM 38.8231 -120.7581 52° Northeast 387 445 17,300 2,000 Climbing Oakland Center
Tue 04:19:24 PM 38.9056 -120.6236 52° Northeast 400 460 19,500 1,820 Climbing Oakland Center
Tue 04:20:25 PM 38.9764 -120.5078 52° Northeast 410 472 21,000 1,463 Climbing Oakland Center
Tue 04:21:27 PM 39.0494 -120.3881 52° Northeast 422 486 22,500 1,317 Climbing Oakland Center
Tue 04:22:28 PM 39.1239 -120.2658 52° Northeast 432 497 23,700 1,122 Climbing Oakland Center
Tue 04:23:30 PM 39.1994 -120.1403 52° Northeast 442 509 24,800 1,220 Climbing Oakland Center
Tue 04:24:31 PM 39.2897 -119.9969 51° Northeast 461 531 26,200 1,268 Climbing Oakland Center
Tue 04:25:33 PM 39.3675 -119.8675 52° Northeast 458 527 27,400 1,122 Climbing Oakland Center
Tue 04:26:34 PM 39.4458 -119.7383 52° Northeast 456 525 28,500 1,033 Climbing Oakland Center
Tue 04:27:35 PM 39.5242 -119.6072 52° Northeast 458 527 29,500 976 Climbing Oakland Center
Tue 04:28:37 PM 39.6003 -119.4750 53° Northeast 456 525 30,500 732 Climbing Oakland Center
Tue 04:29:38 PM 39.6800 -119.3422 52° Northeast 463 533 31,000 244 Climbing Oakland Center
Tue 04:30:40 PM 39.7586 -119.2097 52° Northeast 460 529 31,000  Level Oakland Center
Tue 04:31:41 PM 39.8364 -119.0772 53° Northeast 458 527 31,000  Level Oakland Center
Tue 04:32:42 PM 39.9133 -118.9433 53° Northeast 458 527 31,000  Level Oakland Center
Tue 04:33:44 PM 39.9906 -118.8103 53° Northeast 458 527 31,000  Level Oakland Center
Tue 04:34:45 PM 40.0683 -118.6783 52° Northeast 457 526 31,000  Level Oakland Center
Tue 04:35:46 PM 40.1344 -118.5375 58° Northeast 453 521 31,000  Level Oakland Center
Tue 04:36:48 PM 40.1886 -118.3503 69° East 455 524 31,000  Level Oakland Center
Tue 04:37:49 PM 40.2306 -118.1958 70° East 451 519 31,000 368 Level Oakland Center
Tue 04:38:42 PM 40.2672 -118.0606 70° East 459 528 31,700 789 Climbing Salt Lake Center
Tue 04:39:43 PM 40.3083 -117.9081 70° East 464 534 32,500 829 Climbing Salt Lake Center
Tue 04:40:45 PM 40.3561 -117.7322 70° East 460 529 33,400 774 Climbing Salt Lake Center
Tue 04:41:47 PM 40.3961 -117.5808 71° East 460 529 34,100 581 Climbing Salt Lake Center
Tue 04:42:49 PM 40.4364 -117.4283 71° East 461 531 34,600 435 Climbing Salt Lake Center
Tue 04:43:51 PM 40.4844 -117.2511 70° East 461 531 35,000 194 Climbing Salt Lake Center
Tue 04:44:53 PM 40.5261 -117.0939 71° East 468 539 35,000  Level Salt Lake Center
Tue 04:45:55 PM 40.5767 -116.9061 70° East 478 550 35,000  Level Salt Lake Center
Tue 04:46:57 PM 40.6350 -116.7550 63° Northeast 478 550 35,000  Level Salt Lake Center
Tue 04:47:59 PM 40.6939 -116.6056 62° Northeast 477 549 35,000  Level Salt Lake Center
Tue 04:49:00 PM 40.7603 -116.4322 63° Northeast 474 545 35,000  Level Salt Lake Center
Tue 04:50:02 PM 40.8167 -116.2836 63° Northeast 475 547 35,000  Level Salt Lake Center
Tue 04:51:04 PM 40.8858 -116.1097 62° Northeast 477 549 35,000  Level Salt Lake Center
Tue 04:52:06 PM 40.9422 -115.9614 63° Northeast 474 545 35,000  Level Salt Lake Center
Tue 04:53:08 PM 41.0089 -115.7853 63° Northeast 477 549 35,000  Level Salt Lake Center
Tue 04:54:10 PM 41.0653 -115.6364 63° Northeast 476 548 35,000  Level Salt Lake Center
Tue 04:55:12 PM 41.1214 -115.4858 64° Northeast 475 547 35,000  Level Salt Lake Center
Tue 04:56:14 PM 41.1858 -115.3114 64° Northeast 473 544 35,000  Level Salt Lake Center
Tue 04:57:15 PM 41.2417 -115.1619 64° Northeast 472 543 35,000  Level Salt Lake Center
Tue 04:58:17 PM 41.3056 -114.9847 64° Northeast 475 547 35,000  Level Salt Lake Center
Tue 04:59:19 PM 41.3636 -114.8300 63° Northeast 475 547 35,000  Level Salt Lake Center
Tue 05:00:21 PM 41.4211 -114.6714 64° Northeast 475 547 35,000  Level Salt Lake Center
Tue 05:01:23 PM 41.4783 -114.5131 64° Northeast 475 547 35,000  Level Salt Lake Center
Tue 05:02:25 PM 41.5364 -114.3539 64° Northeast 477 549 35,000  Level Salt Lake Center
Tue 05:03:27 PM 41.6050 -114.1639 64° Northeast 477 549 35,000  Level Salt Lake Center
Tue 05:04:28 PM 41.6603 -114.0039 65° Northeast 475 547 35,000  Level Salt Lake Center
Tue 05:05:30 PM 41.7189 -113.8447 64° Northeast 476 548 35,000  Level Salt Lake Center
Tue 05:06:32 PM 41.7758 -113.6836 65° Northeast 479 551 35,000  Level Salt Lake Center
Tue 05:07:34 PM 41.8311 -113.5219 65° Northeast 479 551 35,000  Level Salt Lake Center
Tue 05:08:36 PM 41.8875 -113.3619 65° Northeast 475 547 35,000  Level Salt Lake Center
Tue 05:09:38 PM 41.9442 -113.2017 65° Northeast 475 547 35,000  Level Salt Lake Center
Tue 05:10:40 PM 42.0108 -113.0044 65° Northeast 481 554 35,000  Level Salt Lake Center
Tue 05:11:42 PM 42.0678 -112.8406 65° Northeast 483 556 35,000  Level Salt Lake Center
Tue 05:12:44 PM 42.1228 -112.6775 66° East 481 554 35,000  Level Salt Lake Center
Tue 05:13:46 PM 42.1789 -112.5108 66° East 485 558 35,000  Level Salt Lake Center
Tue 05:14:48 PM 42.2342 -112.3472 65° Northeast 482 555 35,000  Level Salt Lake Center
Tue 05:15:50 PM 42.2886 -112.1794 66° East 485 558 35,000  Level Salt Lake Center
Tue 05:16:52 PM 42.3431 -112.0131 66° East 486 559 35,000  Level Salt Lake Center
Tue 05:17:53 PM 42.4078 -111.8092 67° East 491 565 35,000  Level Salt Lake Center
Tue 05:18:55 PM 42.4619 -111.6425 66° East 486 559 35,000  Level Salt Lake Center
Tue 05:19:57 PM 42.5147 -111.4739 67° East 487 560 35,000  Level Salt Lake Center
Tue 05:20:59 PM 42.5686 -111.3058 66° East 487 560 35,000  Level Salt Lake Center
Tue 05:22:01 PM 42.6214 -111.1375 67° East 485 558 35,000  Level Salt Lake Center
Tue 05:23:03 PM 42.6817 -110.9442 67° East 488 562 35,000  Level Salt Lake Center
Tue 05:24:05 PM 42.7367 -110.7694 67° East 494 568 35,000  Level Salt Lake Center
Tue 05:25:07 PM 42.7861 -110.6081 67° East 488 562 35,000 -48 Level Salt Lake Center
Tue 05:26:09 PM 42.8408 -110.4303 67° East 484 557 34,900  Descending Salt Lake Center
Tue 05:27:11 PM 42.8983 -110.2389 68° East 488 562 35,000 48 Climbing Salt Lake Center
Tue 05:28:13 PM 42.9508 -110.0650 68° East 491 565 35,000  Level Salt Lake Center
Tue 05:29:15 PM 42.9997 -109.9022 68° East 487 560 35,000  Level Salt Lake Center
Tue 05:30:17 PM 43.0531 -109.7244 68° East 487 560 35,000  Level Salt Lake Center
Tue 05:31:19 PM 43.1028 -109.5547 68° East 483 556 35,000  Level Salt Lake Center
Tue 05:32:21 PM 43.1531 -109.3844 68° East 483 556 35,000  Level Salt Lake Center
Tue 05:33:23 PM 43.2039 -109.2114 68° East 490 564 35,000  Level Salt Lake Center
Tue 05:34:25 PM 43.2625 -109.0042 69° East 489 563 35,000  Level Salt Lake Center
Tue 05:35:27 PM 43.3128 -108.8319 68° East 488 562 35,000  Level Salt Lake Center
Tue 05:36:29 PM 43.3617 -108.6600 69° East 486 559 35,000  Level Salt Lake Center
Tue 05:37:31 PM 43.4100 -108.4883 69° East 484 557 35,000  Level Salt Lake Center
Tue 05:38:33 PM 43.4592 -108.3147 69° East 489 563 35,000  Level Salt Lake Center
Tue 05:39:35 PM 43.5208 -108.1058 68° East 494 568 35,000  Level Salt Lake Center
Tue 05:40:37 PM 43.5719 -107.9325 68° East 492 566 35,000  Level Salt Lake Center
Tue 05:41:39 PM 43.6239 -107.7558 68° East 499 574 35,000  Level Salt Lake Center
Tue 05:42:41 PM 43.6750 -107.5786 68° East 500 575 35,000  Level Salt Lake Center
Tue 05:43:43 PM 43.7261 -107.4047 68° East 494 568 35,000  Level Salt Lake Center
Tue 05:44:45 PM 43.7747 -107.2300 69° East 491 565 35,000  Level Salt Lake Center
Tue 05:45:47 PM 43.8347 -107.0183 68° East 495 570 35,000  Level Salt Lake Center
Tue 05:46:49 PM 43.8872 -106.8406 68° East 498 573 35,000  Level Salt Lake Center
Tue 05:47:51 PM 43.9342 -106.6694 69° East 496 571 35,000  Level Salt Lake Center
Tue 05:48:24 PM 43.9675 -106.5533 68° East 495 570 35,000  Level Denver Center
Tue 05:49:26 PM 44.0158 -106.3808 69° East 501 577 35,000  Level Denver Center
Tue 05:50:28 PM 44.0658 -106.1775 71° East 498 573 35,000  Level Denver Center
Tue 05:51:30 PM 44.1100 -106.0036 70° East 498 573 35,000  Level Denver Center
Tue 05:52:32 PM 44.1586 -105.8022 71° East 494 568 35,000  Level Denver Center
Tue 05:53:46 PM 44.2019 -105.6267 71° East 497 572 35,000  Level Denver Center
Tue 05:54:48 PM 44.2528 -105.4194 71° East 502 578 35,000 432 Level Denver Center
Tue 05:55:51 PM 44.3025 -105.2122 71° East 504 580 35,900 768 Climbing Denver Center
Tue 05:56:53 PM 44.3528 -105.0039 71° East 506 582 36,600 532 Climbing Denver Center
Tue 05:57:55 PM 44.3944 -104.8281 72° East 500 575 37,000 194 Climbing Denver Center
Tue 05:58:57 PM 44.4433 -104.6197 72° East 503 579 37,000  Level Denver Center
Tue 05:59:59 PM 44.4856 -104.4381 72° East 508 585 37,000 -484 Level Denver Center
Tue 06:01:01 PM 44.5325 -104.2331 72° East 500 575 36,000 -968 Descending Denver Center
Tue 06:02:03 PM 44.5744 -104.0536 72° East 505 581 35,000 -532 Descending Denver Center
Tue 06:03:05 PM 44.6142 -103.8764 72° East 499 574 34,900 -532 Descending Denver Center
Tue 06:04:07 PM 44.6594 -103.6706 73° East 493 567 33,900 -919 Descending Denver Center
Tue 06:05:09 PM 44.7044 -103.4747 72° East 483 556 33,000 -432 Descending Denver Center
Tue 06:06:12 PM 44.7439 -103.2933 73° East 487 560 33,000  Level Denver Center
Tue 06:07:14 PM 44.7831 -103.1161 73° East 478 550 33,000  Level Denver Center
Tue 06:08:16 PM 44.8228 -102.9375 73° East 478 550 33,000  Level Denver Center
Tue 06:09:18 PM 44.8608 -102.7572 73° East 480 552 33,000  Level Denver Center
Tue 06:09:58 PM 44.8917 -102.6144 73° East 479 551 33,000  Level Minneapolis Center
Tue 06:10:59 PM 44.9222 -102.4714 73° East 477 549 33,000  Level Minneapolis Center
Tue 06:12:02 PM 44.9681 -102.2536 73° East 480 552 33,000  Level Minneapolis Center
Tue 06:13:04 PM 44.9978 -102.1092 74° East 480 552 33,000  Level Minneapolis Center
Tue 06:14:06 PM 45.0422 -101.8928 74° East 479 551 33,000  Level Minneapolis Center
Tue 06:15:08 PM 45.0703 -101.7083 78° East 481 554 33,000  Level Minneapolis Center
Tue 06:16:10 PM 45.0694 -101.5547 90° East 487 560 33,000  Level Minneapolis Center
Tue 06:17:12 PM 45.0494 -101.2867 96° East 490 564 33,000  Level Minneapolis Center
Tue 06:18:14 PM 45.0367 -101.0947 95° East 491 565 33,000  Level Minneapolis Center
Tue 06:19:16 PM 45.0231 -100.9019 96° East 492 566 33,000  Level Minneapolis Center
Tue 06:20:18 PM 45.0097 -100.7069 95° East 495 570 33,000  Level Minneapolis Center
Tue 06:21:32 PM 44.9950 -100.5092 96° East 503 579 33,000 44 Level Minneapolis Center
Tue 06:22:35 PM 44.9739 -100.2342 96° East 506 582 33,100  Climbing Minneapolis Center
Tue 06:23:37 PM 44.9575 -100.0403 97° East 507 583 33,000 -48 Descending Minneapolis Center
Tue 06:24:39 PM 44.9431 -99.8486 96° East 510 587 33,000  Level Minneapolis Center
Tue 06:25:41 PM 44.9294 -99.6553 96° East 505 581 33,000  Level Minneapolis Center
Tue 06:26:43 PM 44.9097 -99.4200 97° East 506 582 33,000  Level Minneapolis Center
Tue 06:27:45 PM 44.8931 -99.2214 97° East 510 587 33,000  Level Minneapolis Center
Tue 06:28:47 PM 44.8758 -99.0225 97° East 513 590 33,000  Level Minneapolis Center
Tue 06:29:49 PM 44.8581 -98.8222 97° East 515 593 33,000  Level Minneapolis Center
Tue 06:30:51 PM 44.8411 -98.6197 97° East 519 597 33,000  Level Minneapolis Center
Tue 06:31:52 PM 44.8256 -98.4589 98° East 520 598 33,000  Level Minneapolis Center
Tue 06:33:07 PM 44.8003 -98.1844 97° East 525 604 33,000  Level Minneapolis Center
Tue 06:34:09 PM 44.7761 -97.9406 98° East 526 605 33,000  Level Minneapolis Center
Tue 06:35:23 PM 44.7569 -97.7397 98° East 520 598 33,000  Level Minneapolis Center
Tue 06:36:25 PM 44.7308 -97.4975 99° East 521 600 33,000  Level Minneapolis Center
Tue 06:37:27 PM 44.7067 -97.2500 98° East 532 612 33,000  Level Minneapolis Center
Tue 06:38:29 PM 44.6850 -97.0378 98° East 546 628 33,000  Level Minneapolis Center
Tue 06:39:30 PM 44.6658 -96.8661 99° East 552 635 33,000  Level Minneapolis Center
Tue 06:40:33 PM 44.6375 -96.6025 98° East 565 650 33,000  Level Minneapolis Center
Tue 06:41:35 PM 44.6142 -96.3814 98° East 568 654 33,000 -435 Level Minneapolis Center
Tue 06:42:37 PM 44.5903 -96.1614 99° East 565 650 32,100 -927 Descending Minneapolis Center
Tue 06:43:38 PM 44.5644 -95.9436 99° East 562 647 31,100 -976 Descending Minneapolis Center
Tue 06:44:40 PM 44.5400 -95.7267 99° East 561 646 30,100 -1,355 Descending Minneapolis Center
Tue 06:45:42 PM 44.5147 -95.5189 100° East 545 627 28,300 -1,985 Descending Minneapolis Center
Tue 06:46:56 PM 44.4856 -95.2822 100° East 517 595 25,600 -2,149 Descending Minneapolis Center
Tue 06:48:10 PM 44.5183 -95.0625 78° East 484 557 23,000 -2,250 Descending Minneapolis Center
Tue 06:49:12 PM 44.5594 -94.8592 74° East 460 529 20,500 -1,984 Descending Minneapolis Center
Tue 06:50:14 PM 44.5850 -94.7286 75° East 445 512 18,900 -2,177 Descending Minneapolis Center
Tue 06:51:16 PM 44.6242 -94.5233 75° East 424 488 16,000 -2,371 Descending Minneapolis Center
Tue 06:52:18 PM 44.6539 -94.3686 75° East 412 474 14,000 -1,984 Descending Minneapolis Center
Tue 06:53:20 PM 44.6822 -94.2189 75° East 397 457 11,900 -1,452 Descending Minneapolis Center
Tue 06:54:22 PM 44.7114 -94.0736 74° East 388 447 11,000 -397 Descending Minneapolis Center
Tue 06:55:36 PM 44.7439 -93.9317 72° East 381 438 11,000 -176 Level Minneapolis Center
Tue 06:56:38 PM 44.7881 -93.7333 73° East 377 434 10,600 -677 Descending Minneapolis Center
Tue 06:57:40 PM 44.8164 -93.6056 73° East 340 391 9,600 -774 Descending Minneapolis Center
Tue 06:58:42 PM 44.8433 -93.4833 73° East 327 376 9,000 -290 Descending Minneapolis Center
Tue 06:59:44 PM 44.8844 -93.3722 62° Northeast 318 366 9,000  Level Minneapolis Center
Tue 07:00:46 PM 44.9281 -93.2781 57° Northeast 289 333 9,000 -244 Level Minneapolis Center
Tue 07:01:47 PM 44.9456 -93.1917 74° East 284 327 8,500 -971 Descending Minneapolis Center
Tue 07:03:02 PM 44.9367 -93.0622 95° East 276 318 6,800 -1,139 Descending Minneapolis Center
Tue 07:04:04 PM 44.9042 -92.9583 114° Southeast 237 273 5,900 -1,161 Descending Minneapolis Center
Tue 07:05:06 PM 44.8689 -92.8928 127° Southeast 220 253 4,400 -971 Descending Minneapolis Center
Tue 07:06:20 PM 44.8286 -92.9472 224° Southwest 185 213 3,700 -613 Descending Minneapolis Center
Tue 07:07:23 PM 44.8250 -93.0244 266° West 165 190 3,000 -528 Descending Minneapolis Center
Tue 07:08:25 PM 44.8325 -93.0811 281° West 159 183 2,600 -532 Descending Minneapolis Center
Tue 07:09:27 PM 44.8525 -93.1278 301° West 141 162 1,900 -774 Descending Minneapolis Center
Tue 07:10:29 PM 44.8764 -93.1819 302° West 136 157 1,000 -871 Descending Minneapolis Center

Login

Don't have an account? Register now (free) for customized features, flight alerts, and more!